Time;durP1;ratioP1;P1;durP2;ratioP2;P2;SDS_P1;SDS_P2;PMS_P1;PMS_P2;Temp;Humidity;BMP_temperature;BMP_pressure;BME280_temperature;BME280_humidity;BME280_pressure;Samples;Min_cycle;Max_cycle;Signal;HPM_P1;HPM_P2
2021/12/30 00:01:23;;;;;;;10.75;10.05;;;;;;;;;;4931028;28;20040;-69
2021/12/30 00:03:50;;;;;;;10.70;10.00;;;;;;;;;;4947947;28;20042;-68
2021/12/30 00:06:18;;;;;;;10.75;9.98;;;;;;;;;;4934523;29;20070;-68
2021/12/30 00:08:45;;;;;;;11.23;10.50;;;;;;;;;;4947474;29;20062;-69
2021/12/30 00:11:11;;;;;;;10.48;9.88;;;;;;;;;;4942010;29;20035;-68
2021/12/30 00:13:39;;;;;;;11.05;10.07;;;;;;;;;;4927311;29;20033;-68
2021/12/30 00:16:05;;;;;;;10.50;9.90;;;;;;;;;;4942515;29;20318;-69
2021/12/30 00:18:31;;;;;;;11.13;10.45;;;;;;;;;;4948661;29;20114;-69
2021/12/30 00:20:57;;;;;;;11.32;10.50;;;;;;;;;;4943830;29;20110;-69
2021/12/30 00:23:23;;;;;;;10.40;9.77;;;;;;;;;;4947085;29;20075;-69
2021/12/30 00:25:49;;;;;;;11.27;10.55;;;;;;;;;;4944037;29;20074;-69
2021/12/30 00:28:18;;;;;;;11.00;10.27;;;;;;;;;;4946360;28;20031;-69
2021/12/30 00:30:44;;;;;;;10.90;10.30;;;;;;;;;;4934614;29;20544;-69
2021/12/30 00:33:11;;;;;;;11.00;10.20;;;;;;;;;;4931483;29;20137;-69
2021/12/30 00:35:37;;;;;;;11.40;10.60;;;;;;;;;;4945401;29;20069;-69
2021/12/30 00:38:04;;;;;;;10.88;10.20;;;;;;;;;;4942339;29;20064;-69
2021/12/30 00:40:31;;;;;;;11.23;10.45;;;;;;;;;;4946822;29;20035;-68
2021/12/30 00:42:59;;;;;;;11.23;10.55;;;;;;;;;;4948817;29;20050;-69
2021/12/30 00:45:29;;;;;;;11.00;10.40;;;;;;;;;;4945318;29;20038;-69
2021/12/30 00:47:54;;;;;;;;;;;;;;;;;;4943845;29;20122;-69
2021/12/30 00:50:20;;;;;;;11.73;10.77;;;;;;;;;;4941614;29;19997;-69
2021/12/30 00:52:45;;;;;;;11.23;10.43;;;;;;;;;;4943964;29;20125;-69
2021/12/30 00:55:11;;;;;;;10.48;9.88;;;;;;;;;;4947940;29;20304;-69
2021/12/30 00:57:37;;;;;;;10.75;10.02;;;;;;;;;;4945219;28;20031;-69
2021/12/30 01:00:07;;;;;;;10.68;10.07;;;;;;;;;;4946390;29;20034;-69
2021/12/30 01:02:33;;;;;;;10.55;9.90;;;;;;;;;;4944510;29;20038;-69
2021/12/30 01:04:59;;;;;;;10.18;9.57;;;;;;;;;;4935139;28;20036;-69
2021/12/30 01:07:25;;;;;;;10.60;9.98;;;;;;;;;;4947518;29;20085;-69
2021/12/30 01:09:50;;;;;;;10.73;10.02;;;;;;;;;;4945818;29;20097;-69
2021/12/30 01:12:16;;;;;;;10.48;9.88;;;;;;;;;;4942625;28;20043;-69
2021/12/30 01:14:46;;;;;;;10.65;10.05;;;;;;;;;;4949134;28;20047;-69
2021/12/30 01:17:21;;;;;;;10.63;9.82;;;;;;;;;;4927688;28;20584;-69
2021/12/30 01:19:50;;;;;;;11.25;10.45;;;;;;;;;;4916596;29;20203;-69
2021/12/30 01:22:22;;;;;;;11.57;10.73;;;;;;;;;;4945709;29;20039;-69
2021/12/30 01:24:49;;;;;;;10.98;10.27;;;;;;;;;;4948046;29;20482;-69
2021/12/30 01:27:15;;;;;;;10.82;10.10;;;;;;;;;;4928896;29;20550;-69
2021/12/30 01:29:41;;;;;;;10.73;10.02;;;;;;;;;;4944704;29;20039;-69
2021/12/30 01:32:07;;;;;;;10.93;10.32;;;;;;;;;;4946391;29;20480;-69
2021/12/30 01:34:33;;;;;;;10.13;9.43;;;;;;;;;;4946257;29;20035;-69
2021/12/30 01:37:01;;;;;;;10.65;9.95;;;;;;;;;;4945277;29;20562;-69
2021/12/30 01:39:28;;;;;;;10.02;9.43;;;;;;;;;;4944901;29;20036;-69
2021/12/30 01:41:54;;;;;;;10.63;9.68;;;;;;;;;;4948171;29;20565;-69
2021/12/30 01:44:21;;;;;;;10.82;10.02;;;;;;;;;;4943857;29;20062;-69
2021/12/30 01:46:47;;;;;;;10.95;10.23;;;;;;;;;;4931614;29;20132;-69
2021/12/30 01:49:13;;;;;;;11.10;10.30;;;;;;;;;;4947087;29;20543;-69
2021/12/30 01:51:40;;;;;;;10.57;9.70;;;;;;;;;;4927815;29;20395;-69
2021/12/30 01:54:06;;;;;;;11.00;10.20;;;;;;;;;;4947898;29;20089;-69
2021/12/30 01:56:32;;;;;;;10.05;9.35;;;;;;;;;;4947883;29;20035;-69
2021/12/30 01:58:58;;;;;;;11.07;10.38;;;;;;;;;;4950041;28;20043;-69
2021/12/30 02:01:25;;;;;;;10.25;9.63;;;;;;;;;;4949093;29;20027;-69
2021/12/30 02:03:51;;;;;;;10.38;9.57;;;;;;;;;;4947545;29;20039;-69
2021/12/30 02:06:17;;;;;;;10.45;9.68;;;;;;;;;;4949160;29;20391;-69
2021/12/30 02:08:43;;;;;;;9.63;9.02;;;;;;;;;;4947684;29;20039;-69
2021/12/30 02:11:10;;;;;;;9.63;9.02;;;;;;;;;;4944744;29;20039;-69
2021/12/30 02:13:36;;;;;;;10.45;9.77;;;;;;;;;;4946044;29;20035;-69
2021/12/30 02:16:02;;;;;;;9.93;9.30;;;;;;;;;;4946550;28;20046;-69
2021/12/30 02:18:32;;;;;;;9.93;9.23;;;;;;;;;;4948696;29;20046;-69
2021/12/30 02:20:59;;;;;;;10.23;9.43;;;;;;;;;;4945030;29;20042;-69
2021/12/30 02:23:32;;;;;;;9.70;9.18;;;;;;;;;;4950852;29;20167;-69
2021/12/30 02:26:00;;;;;;;10.63;9.82;;;;;;;;;;4950659;28;20043;-69
2021/12/30 02:28:29;;;;;;;10.48;9.70;;;;;;;;;;4949152;28;20050;-69
2021/12/30 02:30:57;;;;;;;9.82;9.23;;;;;;;;;;4947975;29;20391;-69
2021/12/30 02:33:23;;;;;;;10.07;9.48;;;;;;;;;;4931029;29;20400;-69
2021/12/30 02:35:50;;;;;;;10.02;9.43;;;;;;;;;;4950534;29;20510;-70
2021/12/30 02:38:17;;;;;;;10.27;9.63;;;;;;;;;;4913547;29;20079;-69
2021/12/30 02:40:46;;;;;;;10.43;9.88;;;;;;;;;;4949077;29;20027;-69
2021/12/30 02:43:15;;;;;;;10.48;9.88;;;;;;;;;;4929667;29;20050;-69
2021/12/30 02:45:41;;;;;;;;;;;;;;;;;;4949132;29;20047;-69
2021/12/30 02:48:14;;;;;;;9.77;9.18;;;;;;;;;;4947928;29;19937;-69
2021/12/30 02:50:40;;;;;;;10.20;9.40;;;;;;;;;;4949037;29;20039;-69
2021/12/30 02:53:06;;;;;;;9.68;9.18;;;;;;;;;;4948388;29;20031;-70
2021/12/30 02:55:32;;;;;;;9.98;9.35;;;;;;;;;;4948952;29;20514;-69
2021/12/30 02:57:57;;;;;;;9.75;8.90;;;;;;;;;;4946646;28;20485;-69
2021/12/30 03:00:23;;;;;;;10.20;9.50;;;;;;;;;;4949387;29;20094;-69
2021/12/30 03:02:48;;;;;;;10.07;9.48;;;;;;;;;;4932516;29;20118;-69
2021/12/30 03:05:18;;;;;;;10.25;9.65;;;;;;;;;;4948672;29;20604;-69
2021/12/30 03:07:44;;;;;;;10.38;9.60;;;;;;;;;;4947185;29;20035;-69
2021/12/30 03:10:19;;;;;;;9.73;9.13;;;;;;;;;;4943926;29;20522;-69
2021/12/30 03:12:45;;;;;;;10.23;9.38;;;;;;;;;;4929088;29;20078;-69
2021/12/30 03:15:13;;;;;;;10.00;9.38;;;;;;;;;;4946918;29;20463;-70
2021/12/30 03:17:40;;;;;;;9.85;9.25;;;;;;;;;;4947895;29;20086;-69
2021/12/30 03:20:09;;;;;;;10.48;9.60;;;;;;;;;;4931370;29;20473;-69
2021/12/30 03:22:37;;;;;;;10.00;9.40;;;;;;;;;;4946230;29;20081;-69
2021/12/30 03:25:04;;;;;;;10.27;9.68;;;;;;;;;;4939878;29;20038;-69
2021/12/30 03:27:30;;;;;;;10.13;9.52;;;;;;;;;;4943669;28;20470;-69
2021/12/30 03:29:56;;;;;;;10.98;10.05;;;;;;;;;;4948843;29;20085;-69
2021/12/30 03:32:21;;;;;;;10.73;9.95;;;;;;;;;;4939477;29;20031;-70
2021/12/30 03:34:47;;;;;;;10.43;9.82;;;;;;;;;;4947497;28;20047;-69
2021/12/30 03:37:13;;;;;;;10.75;10.15;;;;;;;;;;4949435;28;20055;-70
2021/12/30 03:39:40;;;;;;;10.13;9.52;;;;;;;;;;4945830;29;20113;-70
2021/12/30 03:42:06;;;;;;;9.98;9.30;;;;;;;;;;4947735;29;20452;-70
2021/12/30 03:44:31;;;;;;;10.70;9.95;;;;;;;;;;4947488;29;20492;-70
2021/12/30 03:46:57;;;;;;;9.93;9.32;;;;;;;;;;4944141;29;20024;-70
2021/12/30 03:49:23;;;;;;;10.35;9.75;;;;;;;;;;4947001;29;20030;-71
2021/12/30 03:51:51;;;;;;;9.95;9.25;;;;;;;;;;4947764;29;20441;-70
2021/12/30 03:54:17;;;;;;;10.63;9.75;;;;;;;;;;4927050;29;20057;-70
2021/12/30 03:56:43;;;;;;;10.43;9.77;;;;;;;;;;4929415;29;20126;-70
2021/12/30 03:59:09;;;;;;;11.10;10.20;;;;;;;;;;4939860;29;20059;-71
2021/12/30 04:01:35;;;;;;;10.65;9.88;;;;;;;;;;4947515;29;20069;-70
2021/12/30 04:04:01;;;;;;;10.80;10.00;;;;;;;;;;4937236;28;20511;-70
2021/12/30 04:06:27;;;;;;;11.05;10.25;;;;;;;;;;4946779;29;20058;-70
2021/12/30 04:08:57;;;;;;;11.40;10.45;;;;;;;;;;4945938;29;20027;-70
2021/12/30 04:11:25;;;;;;;10.68;9.88;;;;;;;;;;4948043;29;20034;-71
2021/12/30 04:13:51;;;;;;;10.70;10.10;;;;;;;;;;4946771;29;20255;-71
2021/12/30 04:16:19;;;;;;;10.52;9.73;;;;;;;;;;4947943;29;20058;-71
2021/12/30 04:18:48;;;;;;;11.00;10.40;;;;;;;;;;4929773;29;20086;-71
2021/12/30 04:21:16;;;;;;;11.50;10.65;;;;;;;;;;4944733;28;20035;-71
2021/12/30 04:23:42;;;;;;;10.47;9.77;;;;;;;;;;4948327;29;20031;-71
2021/12/30 04:26:08;;;;;;;10.10;9.50;;;;;;;;;;4947776;29;20047;-72
2021/12/30 04:28:33;;;;;;;10.90;9.88;;;;;;;;;;4949124;28;20031;-72
2021/12/30 04:30:59;;;;;;;9.77;9.18;;;;;;;;;;4930090;29;20720;-72
2021/12/30 04:33:25;;;;;;;9.55;8.95;;;;;;;;;;4949330;29;20034;-71
2021/12/30 04:35:56;;;;;;;10.50;9.90;;;;;;;;;;4949361;29;20042;-70
2021/12/30 04:38:25;;;;;;;10.15;9.45;;;;;;;;;;4946525;29;20027;-70
2021/12/30 04:40:51;;;;;;;10.40;9.63;;;;;;;;;;4942983;29;20086;-70
2021/12/30 04:43:17;;;;;;;10.30;9.60;;;;;;;;;;4943249;29;20043;-70
2021/12/30 04:45:44;;;;;;;9.70;9.20;;;;;;;;;;4941503;29;20051;-70
2021/12/30 04:48:10;;;;;;;10.80;10.10;;;;;;;;;;4945209;28;20486;-70
2021/12/30 04:50:37;;;;;;;9.88;9.27;;;;;;;;;;4952145;29;20054;-70
2021/12/30 04:53:03;;;;;;;9.90;9.20;;;;;;;;;;4951204;29;20083;-69
2021/12/30 04:55:29;;;;;;;11.32;10.30;;;;;;;;;;4935759;29;20109;-70
2021/12/30 04:57:55;;;;;;;10.00;9.43;;;;;;;;;;4936298;29;20465;-70
2021/12/30 05:00:22;;;;;;;10.02;9.43;;;;;;;;;;4951052;29;20413;-70
2021/12/30 05:05:23;;;;;;;10.50;9.82;;;;;;;;;;4930474;29;20043;-70
2021/12/30 05:07:48;;;;;;;10.60;9.90;;;;;;;;;;4949968;29;20316;-70
2021/12/30 05:10:14;;;;;;;10.77;10.07;;;;;;;;;;4936039;29;20070;-70
2021/12/30 05:12:40;;;;;;;10.63;9.85;;;;;;;;;;4951035;29;20046;-70
2021/12/30 05:15:05;;;;;;;11.30;10.48;;;;;;;;;;4949806;29;20054;-70
2021/12/30 05:17:31;;;;;;;10.77;10.18;;;;;;;;;;4950773;28;20085;-70
2021/12/30 05:19:57;;;;;;;11.35;10.63;;;;;;;;;;4952962;29;20082;-70
2021/12/30 05:22:22;;;;;;;10.43;9.70;;;;;;;;;;4923531;29;20055;-70
2021/12/30 05:24:48;;;;;;;10.80;10.20;;;;;;;;;;4948785;29;20406;-70
2021/12/30 05:27:13;;;;;;;10.90;10.30;;;;;;;;;;4950074;29;20041;-70
2021/12/30 05:29:39;;;;;;;10.57;9.65;;;;;;;;;;4949703;28;20422;-70
2021/12/30 05:32:05;;;;;;;10.52;9.73;;;;;;;;;;4946403;29;20115;-70
2021/12/30 05:34:30;;;;;;;10.50;9.90;;;;;;;;;;4951402;28;20480;-70
2021/12/30 05:36:56;;;;;;;11.23;10.27;;;;;;;;;;4948350;29;20394;-70
2021/12/30 05:39:21;;;;;;;10.50;9.90;;;;;;;;;;4950897;29;20059;-70
2021/12/30 05:41:47;;;;;;;11.32;10.52;;;;;;;;;;4945382;29;20098;-70
2021/12/30 05:44:13;;;;;;;10.85;10.25;;;;;;;;;;4930281;29;20039;-70
2021/12/30 05:46:38;;;;;;;10.65;9.90;;;;;;;;;;4950975;29;20047;-70
2021/12/30 05:49:04;;;;;;;10.70;10.05;;;;;;;;;;4951725;29;20066;-70
2021/12/30 05:51:30;;;;;;;10.70;10.10;;;;;;;;;;4949777;29;20355;-70
2021/12/30 05:53:55;;;;;;;11.13;10.52;;;;;;;;;;4950961;29;20090;-70
2021/12/30 05:56:21;;;;;;;10.68;9.85;;;;;;;;;;4944328;29;20105;-70
2021/12/30 05:58:46;;;;;;;11.23;10.32;;;;;;;;;;4950553;28;20035;-70
2021/12/30 06:01:12;;;;;;;10.13;9.60;;;;;;;;;;4947342;28;20079;-70
2021/12/30 06:03:38;;;;;;;10.23;9.52;;;;;;;;;;4948794;29;20497;-70
2021/12/30 06:06:03;;;;;;;10.65;9.98;;;;;;;;;;4946374;29;20059;-70
2021/12/30 06:08:29;;;;;;;10.73;9.75;;;;;;;;;;4948518;29;20402;-69
2021/12/30 06:10:55;;;;;;;10.60;10.00;;;;;;;;;;4947317;29;20058;-70
2021/12/30 06:13:20;;;;;;;9.82;9.23;;;;;;;;;;4943195;29;20538;-70
2021/12/30 06:15:46;;;;;;;10.25;9.65;;;;;;;;;;4950995;29;20043;-71
2021/12/30 06:18:11;;;;;;;10.93;10.13;;;;;;;;;;4951913;29;20039;-70
2021/12/30 06:20:37;;;;;;;10.23;9.63;;;;;;;;;;4945027;29;20498;-70
2021/12/30 06:23:03;;;;;;;10.88;10.27;;;;;;;;;;4946841;29;20316;-71
2021/12/30 06:25:28;;;;;;;10.88;10.18;;;;;;;;;;4932444;29;20423;-71
2021/12/30 06:27:54;;;;;;;10.68;10.07;;;;;;;;;;4946092;28;20075;-70
2021/12/30 06:30:20;;;;;;;10.63;9.93;;;;;;;;;;4948900;29;20616;-70
2021/12/30 06:32:45;;;;;;;11.40;10.60;;;;;;;;;;4945939;29;20396;-70
2021/12/30 06:35:11;;;;;;;10.88;10.18;;;;;;;;;;4946325;29;20138;-70
2021/12/30 06:37:38;;;;;;;11.02;10.43;;;;;;;;;;4941056;29;20389;-70
2021/12/30 06:40:05;;;;;;;10.90;10.30;;;;;;;;;;4945670;29;20122;-70
2021/12/30 06:42:31;;;;;;;11.05;10.27;;;;;;;;;;4949550;28;20043;-70
2021/12/30 06:44:57;;;;;;;10.90;10.30;;;;;;;;;;4947462;28;20502;-70
2021/12/30 06:47:24;;;;;;;10.85;10.15;;;;;;;;;;4945648;29;20403;-70
2021/12/30 06:49:50;;;;;;;10.95;10.07;;;;;;;;;;4945694;29;20445;-73
2021/12/30 06:52:15;;;;;;;12.13;11.27;;;;;;;;;;4951097;28;20041;-70
2021/12/30 06:54:41;;;;;;;20.98;16.08;;;;;;;;;;4949989;29;20077;-70
2021/12/30 06:57:09;;;;;;;13.93;12.73;;;;;;;;;;4950767;29;20067;-70
2021/12/30 06:59:35;;;;;;;12.00;11.20;;;;;;;;;;4948447;28;20035;-70
2021/12/30 07:02:01;;;;;;;10.55;9.95;;;;;;;;;;4934595;29;20093;-69
2021/12/30 07:04:27;;;;;;;12.52;11.50;;;;;;;;;;4947215;29;20057;-70
2021/12/30 07:06:53;;;;;;;11.82;11.13;;;;;;;;;;4949525;29;20479;-69
2021/12/30 07:09:20;;;;;;;11.88;11.18;;;;;;;;;;4943077;29;20035;-69
2021/12/30 07:11:48;;;;;;;12.13;11.38;;;;;;;;;;4948212;28;20415;-69
2021/12/30 07:14:19;;;;;;;11.80;11.07;;;;;;;;;;4951649;29;20039;-69
2021/12/30 07:16:45;;;;;;;11.82;11.02;;;;;;;;;;4947881;29;20035;-69
2021/12/30 07:19:12;;;;;;;11.70;10.90;;;;;;;;;;4949108;29;20160;-69
2021/12/30 07:21:38;;;;;;;10.95;10.35;;;;;;;;;;4947410;28;20055;-70
2021/12/30 07:24:04;;;;;;;11.55;10.82;;;;;;;;;;4949785;29;20031;-70
2021/12/30 07:26:29;;;;;;;11.45;10.75;;;;;;;;;;4947501;29;20114;-70
2021/12/30 07:28:55;;;;;;;12.10;11.40;;;;;;;;;;4946090;28;20127;-68
2021/12/30 07:31:21;;;;;;;11.32;10.63;;;;;;;;;;4947206;29;20058;-68
2021/12/30 07:33:46;;;;;;;11.98;11.18;;;;;;;;;;4948130;29;20078;-68
2021/12/30 07:36:12;;;;;;;11.93;11.13;;;;;;;;;;4947521;29;20062;-69
2021/12/30 07:38:37;;;;;;;11.70;10.98;;;;;;;;;;4948388;29;20470;-68
2021/12/30 07:41:04;;;;;;;11.60;10.90;;;;;;;;;;4948484;29;20122;-69
2021/12/30 07:43:31;;;;;;;11.73;10.93;;;;;;;;;;4943769;29;20039;-68
2021/12/30 07:45:57;;;;;;;11.13;10.43;;;;;;;;;;4947087;29;20031;-69
2021/12/30 07:48:22;;;;;;;11.43;10.73;;;;;;;;;;4948658;29;20529;-68
2021/12/30 07:50:50;;;;;;;11.25;10.52;;;;;;;;;;4944723;29;20168;-68
2021/12/30 07:53:16;;;;;;;11.27;10.57;;;;;;;;;;4947730;29;20049;-68
2021/12/30 07:55:41;;;;;;;11.95;11.15;;;;;;;;;;4946138;29;20039;-68
2021/12/30 07:58:07;;;;;;;11.38;10.77;;;;;;;;;;4928040;29;20086;-68
2021/12/30 08:00:33;;;;;;;11.57;10.88;;;;;;;;;;4947484;29;20093;-68
2021/12/30 08:02:58;;;;;;;11.32;10.63;;;;;;;;;;4945833;29;20027;-68
2021/12/30 08:05:24;;;;;;;11.13;10.43;;;;;;;;;;4930671;29;20585;-68
2021/12/30 08:07:50;;;;;;;11.70;11.00;;;;;;;;;;4950348;28;20070;-68
2021/12/30 08:10:18;;;;;;;11.70;10.90;;;;;;;;;;4952473;28;20043;-68
2021/12/30 08:12:46;;;;;;;11.23;10.63;;;;;;;;;;4950328;28;20041;-69
2021/12/30 08:15:13;;;;;;;11.45;10.75;;;;;;;;;;4956619;28;20038;-69
2021/12/30 08:17:40;;;;;;;11.10;10.50;;;;;;;;;;4958325;28;20074;-70
2021/12/30 08:20:07;;;;;;;11.30;10.60;;;;;;;;;;4948007;28;20410;-69
2021/12/30 08:22:34;;;;;;;12.02;11.32;;;;;;;;;;4949891;28;20039;-69
2021/12/30 08:25:00;;;;;;;11.50;10.80;;;;;;;;;;4959720;28;20098;-69
2021/12/30 08:27:27;;;;;;;11.95;11.15;;;;;;;;;;4940422;28;20495;-69
2021/12/30 08:29:52;;;;;;;11.02;10.43;;;;;;;;;;4953410;28;20050;-69
2021/12/30 08:32:18;;;;;;;11.45;10.75;;;;;;;;;;4947256;29;20467;-69
2021/12/30 08:34:45;;;;;;;10.80;10.20;;;;;;;;;;4948312;29;20513;-69
2021/12/30 08:37:12;;;;;;;11.57;10.75;;;;;;;;;;4950695;29;20043;-69
2021/12/30 08:39:40;;;;;;;11.70;10.98;;;;;;;;;;4949250;28;20043;-69
2021/12/30 08:42:16;;;;;;;11.35;10.57;;;;;;;;;;4932470;29;20044;-68
2021/12/30 08:44:42;;;;;;;10.75;10.05;;;;;;;;;;4948919;29;20110;-69
2021/12/30 08:47:07;;;;;;;10.95;10.25;;;;;;;;;;4931512;29;20114;-69
2021/12/30 08:49:33;;;;;;;11.05;10.45;;;;;;;;;;4950427;29;20046;-69
2021/12/30 08:51:59;;;;;;;11.25;10.35;;;;;;;;;;4945463;29;20121;-69
2021/12/30 08:54:24;;;;;;;12.82;11.93;;;;;;;;;;4949715;29;20526;-68
2021/12/30 08:56:50;;;;;;;12.20;11.40;;;;;;;;;;4951136;29;20046;-69
2021/12/30 08:59:15;;;;;;;12.88;11.75;;;;;;;;;;4952203;28;20457;-69
2021/12/30 09:01:41;;;;;;;11.98;11.27;;;;;;;;;;4933222;29;20094;-69
2021/12/30 09:04:07;;;;;;;11.85;11.13;;;;;;;;;;4947951;28;20037;-69
2021/12/30 09:06:32;;;;;;;11.50;10.80;;;;;;;;;;4951973;29;20039;-69
2021/12/30 09:08:58;;;;;;;11.90;11.20;;;;;;;;;;4951400;29;20475;-69
2021/12/30 09:11:23;;;;;;;11.80;11.10;;;;;;;;;;4932821;29;20118;-69
2021/12/30 09:13:49;;;;;;;12.63;11.63;;;;;;;;;;4949255;28;20028;-69
2021/12/30 09:16:15;;;;;;;12.07;11.27;;;;;;;;;;4948241;28;20203;-69
2021/12/30 09:18:42;;;;;;;13.52;12.27;;;;;;;;;;4950679;29;20135;-69
2021/12/30 09:21:08;;;;;;;11.98;11.27;;;;;;;;;;4947601;29;20106;-69
2021/12/30 09:23:34;;;;;;;11.45;10.75;;;;;;;;;;4944024;29;20118;-69
2021/12/30 09:25:59;;;;;;;12.13;11.40;;;;;;;;;;4945346;29;20043;-69
2021/12/30 09:28:25;;;;;;;12.13;11.43;;;;;;;;;;4930352;29;20031;-68
2021/12/30 09:30:51;;;;;;;12.18;11.48;;;;;;;;;;4948339;29;20047;-69
2021/12/30 09:33:17;;;;;;;12.10;11.40;;;;;;;;;;4949365;29;20827;-69
2021/12/30 09:35:47;;;;;;;12.25;11.55;;;;;;;;;;4949191;28;20035;-69
2021/12/30 09:38:13;;;;;;;12.52;11.80;;;;;;;;;;4947610;29;20031;-69
2021/12/30 09:40:39;;;;;;;12.65;11.85;;;;;;;;;;4949366;29;20039;-69
2021/12/30 09:43:04;;;;;;;11.07;10.48;;;;;;;;;;4950558;29;20051;-69
2021/12/30 09:45:36;;;;;;;10.88;10.18;;;;;;;;;;4946226;29;20251;-69
2021/12/30 09:48:05;;;;;;;10.70;10.00;;;;;;;;;;4930956;29;20495;-69
2021/12/30 09:50:35;;;;;;;10.63;10.02;;;;;;;;;;4950536;29;20043;-69
2021/12/30 09:53:02;;;;;;;10.57;9.98;;;;;;;;;;4949143;29;20035;-69
2021/12/30 09:55:28;;;;;;;10.30;9.70;;;;;;;;;;4946820;28;20035;-69
2021/12/30 09:57:54;;;;;;;10.50;9.90;;;;;;;;;;4949853;28;20024;-69
2021/12/30 10:00:20;;;;;;;11.10;10.50;;;;;;;;;;4946954;29;20040;-69
2021/12/30 10:02:46;;;;;;;11.45;10.75;;;;;;;;;;4948968;29;20042;-69
2021/12/30 10:05:15;;;;;;;10.50;9.90;;;;;;;;;;4932139;29;20356;-68
2021/12/30 10:07:41;;;;;;;;;;;;;;;;;;4949078;29;20588;-68
2021/12/30 10:10:26;;;;;;;10.63;9.98;;;;;;;;;;4946035;29;19929;-69
2021/12/30 10:12:52;;;;;;;11.50;10.80;;;;;;;;;;4946576;29;20492;-69
2021/12/30 10:15:20;;;;;;;10.82;10.13;;;;;;;;;;4948746;29;20515;-69
2021/12/30 10:17:54;;;;;;;10.48;9.85;;;;;;;;;;4949747;29;20031;-69
2021/12/30 10:20:27;;;;;;;10.55;9.95;;;;;;;;;;4946822;29;20035;-69
2021/12/30 10:22:55;;;;;;;10.20;9.43;;;;;;;;;;4949205;29;20035;-69
2021/12/30 10:25:29;;;;;;;10.00;9.50;;;;;;;;;;4949708;29;20046;-69
2021/12/30 10:27:56;;;;;;;10.40;9.80;;;;;;;;;;4945772;28;20558;-69
2021/12/30 10:30:29;;;;;;;10.52;9.85;;;;;;;;;;4948881;29;20565;-68
2021/12/30 10:33:18;;;;;;;11.15;10.35;;;;;;;;;;4950662;29;20058;-70
2021/12/30 10:35:44;;;;;;;10.40;9.80;;;;;;;;;;4928389;29;20050;-68
2021/12/30 10:38:11;;;;;;;10.75;10.13;;;;;;;;;;4946613;29;20403;-68
2021/12/30 10:40:40;;;;;;;10.20;9.60;;;;;;;;;;4947997;29;20118;-68
2021/12/30 10:43:13;;;;;;;10.57;9.95;;;;;;;;;;4946853;29;20503;-68
2021/12/30 10:45:39;;;;;;;10.93;10.32;;;;;;;;;;4945916;28;20042;-69
2021/12/30 10:48:08;;;;;;;10.05;9.45;;;;;;;;;;4947792;29;20035;-70
2021/12/30 10:50:34;;;;;;;9.95;9.27;;;;;;;;;;4946483;29;20317;-68
2021/12/30 10:53:00;;;;;;;9.85;9.35;;;;;;;;;;4944689;29;20063;-70
2021/12/30 10:55:26;;;;;;;9.68;9.07;;;;;;;;;;4948857;29;20510;-70
2021/12/30 10:57:52;;;;;;;9.32;8.82;;;;;;;;;;4949478;28;20046;-69
2021/12/30 11:00:30;;;;;;;9.65;9.05;;;;;;;;;;4947347;29;20078;-68
2021/12/30 11:03:15;;;;;;;9.93;9.32;;;;;;;;;;4945740;29;20043;-68
2021/12/30 11:06:11;;;;;;;9.50;9.00;;;;;;;;;;4949352;29;20097;-70
2021/12/30 11:08:37;;;;;;;9.77;9.18;;;;;;;;;;4948689;29;20522;-68
2021/12/30 11:11:25;;;;;;;9.50;8.90;;;;;;;;;;4943177;29;20050;-68
2021/12/30 11:14:09;;;;;;;9.93;9.33;;;;;;;;;;4912620;29;20038;-68
2021/12/30 11:16:52;;;;;;;8.95;8.45;;;;;;;;;;4949584;29;20035;-68
2021/12/30 11:19:18;;;;;;;10.10;9.60;;;;;;;;;;4941972;29;20042;-68
2021/12/30 11:21:44;;;;;;;10.75;9.95;;;;;;;;;;4944823;28;20439;-69
2021/12/30 11:24:10;;;;;;;10.52;9.93;;;;;;;;;;4944318;29;20090;-72
2021/12/30 11:26:37;;;;;;;10.38;9.77;;;;;;;;;;4946763;29;20039;-67
2021/12/30 11:29:05;;;;;;;11.13;10.32;;;;;;;;;;4948001;28;20126;-68
2021/12/30 11:31:31;;;;;;;10.73;9.95;;;;;;;;;;4946887;29;20561;-68
2021/12/30 11:33:58;;;;;;;9.57;9.07;;;;;;;;;;4943073;29;20403;-71
2021/12/30 11:36:25;;;;;;;9.75;9.05;;;;;;;;;;4945522;29;20035;-69
2021/12/30 11:38:50;;;;;;;9.60;9.10;;;;;;;;;;4931306;29;20054;-68
2021/12/30 11:41:21;;;;;;;9.95;9.35;;;;;;;;;;4946942;29;20031;-69
2021/12/30 11:43:48;;;;;;;10.07;9.48;;;;;;;;;;4945754;29;20064;-69
2021/12/30 11:46:40;;;;;;;10.40;9.75;;;;;;;;;;4947968;29;20035;-68
2021/12/30 11:49:09;;;;;;;10.15;9.63;;;;;;;;;;4945082;28;20474;-68
2021/12/30 11:51:52;;;;;;;10.45;9.85;;;;;;;;;;4944637;28;20035;-69
2021/12/30 11:54:37;;;;;;;10.40;9.70;;;;;;;;;;4948868;29;20046;-68
2021/12/30 11:57:23;;;;;;;10.73;10.13;;;;;;;;;;4945421;29;20462;-69
2021/12/30 11:59:49;;;;;;;10.32;9.73;;;;;;;;;;4943237;29;20094;-68
2021/12/30 12:02:30;;;;;;;10.38;9.77;;;;;;;;;;4945584;29;20031;-69
2021/12/30 12:04:56;;;;;;;10.05;9.45;;;;;;;;;;4946867;29;20073;-69
2021/12/30 12:07:22;;;;;;;10.63;9.93;;;;;;;;;;4941925;29;20035;-68
2021/12/30 12:09:49;;;;;;;10.65;10.05;;;;;;;;;;4945967;28;20124;-69
2021/12/30 12:12:29;;;;;;;10.65;9.95;;;;;;;;;;4943974;28;20093;-68
2021/12/30 12:14:59;;;;;;;9.82;9.32;;;;;;;;;;4948349;29;20055;-68
2021/12/30 12:17:43;;;;;;;10.63;10.02;;;;;;;;;;4942530;29;20035;-68
2021/12/30 12:20:30;;;;;;;10.30;9.70;;;;;;;;;;4943882;29;20415;-68
2021/12/30 12:22:56;;;;;;;10.32;9.73;;;;;;;;;;4944003;29;20416;-68
2021/12/30 12:25:27;;;;;;;9.95;9.45;;;;;;;;;;4942067;28;20039;-68
2021/12/30 12:27:55;;;;;;;10.40;9.70;;;;;;;;;;4945753;28;20039;-68
2021/12/30 12:30:30;;;;;;;10.70;10.10;;;;;;;;;;4944025;29;20510;-68
2021/12/30 12:32:58;;;;;;;10.68;9.70;;;;;;;;;;4946915;29;20041;-70
2021/12/30 12:35:27;;;;;;;10.20;9.60;;;;;;;;;;4926870;29;20130;-68
2021/12/30 12:38:05;;;;;;;;;;;;;;;;;;4947518;29;20043;-69
2021/12/30 12:40:34;;;;;;;10.68;10.07;;;;;;;;;;4927910;29;20021;-69
2021/12/30 12:43:10;;;;;;;9.88;9.38;;;;;;;;;;4942628;29;20438;-68
2021/12/30 12:45:51;;;;;;;11.13;10.52;;;;;;;;;;4946591;29;20039;-68
2021/12/30 12:50:51;;;;;;;10.20;9.70;;;;;;;;;;4930548;29;20398;-70
2021/12/30 12:53:26;;;;;;;10.05;9.45;;;;;;;;;;4944210;28;20078;-68
2021/12/30 12:55:54;;;;;;;10.77;10.18;;;;;;;;;;4943013;29;20039;-69
2021/12/30 12:58:22;;;;;;;10.57;10.00;;;;;;;;;;4947222;28;20490;-68
2021/12/30 13:00:48;;;;;;;10.60;10.00;;;;;;;;;;4942658;29;20415;-69
2021/12/30 13:03:15;;;;;;;10.80;10.20;;;;;;;;;;4944258;29;20049;-68
2021/12/30 13:05:56;;;;;;;10.63;10.02;;;;;;;;;;4947032;28;20035;-70
2021/12/30 13:08:22;;;;;;;10.80;10.20;;;;;;;;;;4946653;29;20521;-69
2021/12/30 13:10:48;;;;;;;10.80;10.20;;;;;;;;;;4946567;28;20509;-70
2021/12/30 13:13:41;;;;;;;10.23;9.63;;;;;;;;;;4949946;29;20122;-70
2021/12/30 13:16:34;;;;;;;10.85;10.25;;;;;;;;;;4947271;29;20426;-70
2021/12/30 13:19:14;;;;;;;10.95;10.32;;;;;;;;;;4930370;29;20041;-70
2021/12/30 13:21:40;;;;;;;;;;;;;;;;;;4949738;29;20062;-69
2021/12/30 13:24:06;;;;;;;14.70;13.38;;;;;;;;;;4948219;29;19918;-69
2021/12/30 13:26:39;;;;;;;12.10;11.10;;;;;;;;;;4946623;29;20046;-69
2021/12/30 13:29:06;;;;;;;10.88;10.27;;;;;;;;;;4945716;28;20526;-70
2021/12/30 13:31:33;;;;;;;11.20;10.40;;;;;;;;;;4944276;28;20048;-70
2021/12/30 13:34:03;;;;;;;10.60;9.98;;;;;;;;;;4942685;28;20060;-70
2021/12/30 13:36:29;;;;;;;10.73;10.13;;;;;;;;;;4946976;29;20461;-70
2021/12/30 13:39:10;;;;;;;10.45;9.85;;;;;;;;;;4944385;29;20038;-70
2021/12/30 13:41:37;;;;;;;11.13;10.52;;;;;;;;;;4949556;29;20066;-70
2021/12/30 13:44:07;;;;;;;11.82;11.05;;;;;;;;;;4947757;29;20031;-70
2021/12/30 13:46:33;;;;;;;10.98;10.38;;;;;;;;;;4947285;29;20062;-69
2021/12/30 13:48:58;;;;;;;11.25;10.55;;;;;;;;;;4948633;29;20456;-69
2021/12/30 13:51:28;;;;;;;11.00;10.40;;;;;;;;;;4949171;29;20392;-70
2021/12/30 13:53:54;;;;;;;11.15;10.55;;;;;;;;;;4947521;29;20035;-70
2021/12/30 13:56:23;;;;;;;11.10;10.27;;;;;;;;;;4947187;29;20094;-70
2021/12/30 13:58:50;;;;;;;10.80;10.20;;;;;;;;;;4945024;28;20048;-69
2021/12/30 14:01:18;;;;;;;11.20;10.60;;;;;;;;;;4947634;29;20039;-70
2021/12/30 14:04:05;;;;;;;10.05;9.55;;;;;;;;;;4933039;29;20506;-70
2021/12/30 14:06:31;;;;;;;10.50;9.80;;;;;;;;;;4945628;29;20046;-70
2021/12/30 14:08:59;;;;;;;9.80;9.30;;;;;;;;;;4941525;29;20047;-68
2021/12/30 14:11:40;;;;;;;11.07;10.38;;;;;;;;;;4948278;29;20039;-69
2021/12/30 14:14:11;;;;;;;11.02;10.43;;;;;;;;;;4944154;29;20499;-71
2021/12/30 14:16:43;;;;;;;11.18;10.57;;;;;;;;;;4948523;29;20122;-69
2021/12/30 14:19:10;;;;;;;11.27;10.57;;;;;;;;;;4943696;28;20039;-69
2021/12/30 14:21:38;;;;;;;11.00;10.32;;;;;;;;;;4945426;28;20074;-68
2021/12/30 14:24:26;;;;;;;10.60;9.90;;;;;;;;;;4940456;29;20117;-68
2021/12/30 14:26:55;;;;;;;10.73;10.02;;;;;;;;;;4929309;29;20160;-69
2021/12/30 14:29:25;;;;;;;11.23;10.52;;;;;;;;;;4943303;28;20035;-70
2021/12/30 14:31:53;;;;;;;11.07;10.45;;;;;;;;;;4944122;29;20081;-69
2021/12/30 14:34:26;;;;;;;11.53;10.83;;;;;;;;;;4945279;29;20035;-69
2021/12/30 14:37:00;;;;;;;11.00;10.40;;;;;;;;;;4933212;29;20046;-70